Time;durP1;ratioP1;P1;durP2;ratioP2;P2;SDS_P1;SDS_P2;PMS_P1;PMS_P2;Temp;Humidity;BMP_temperature;BMP_pressure;BME280_temperature;BME280_humidity;BME280_pressure;Samples;Min_cycle;Max_cycle;Signal;HPM_P1;HPM_P2
2022/10/31 00:01:23;;;;;;;;;;;;;;;8.03;90.37;99215.36;1696936;84;21182;-88
2022/10/31 00:03:52;;;;;;;;;;;;;;;8.04;90.35;99212.31;1696824;84;20341;-88
2022/10/31 00:06:18;;;;;;;;;;;;;;;8.05;90.63;99210.93;1696636;84;20234;-84
2022/10/31 00:08:56;;;;;;;;;;;;;;;8.04;90.67;99200.06;1696636;84;20681;-85
2022/10/31 00:11:24;;;;;;;;;;;;;;;8.02;90.68;99208.42;1696811;84;20244;-83
2022/10/31 00:13:50;;;;;;;;;;;;;;;8.02;90.91;99205.80;1696665;84;21848;-85
2022/10/31 00:16:19;;;;;;;;;;;;;;;8.02;90.94;99205.80;1696609;84;20202;-82
2022/10/31 00:18:49;;;;;;;;;;;;;;;8.02;91.01;99210.16;1697003;84;20218;-85
2022/10/31 00:21:15;;;;;;;;;;;;;;;7.99;91.07;99209.82;1696612;83;20623;-83
2022/10/31 00:23:43;;;;;;;;;;;;;;;7.97;91.25;99202.00;1696689;84;20209;-85
2022/10/31 00:26:10;;;;;;;;;;;;;;;7.95;91.51;99210.80;1696683;84;21861;-85
2022/10/31 00:28:38;;;;;;;;;;;;;;;7.94;91.65;99207.78;1696535;84;20197;-86
2022/10/31 00:31:07;;;;;;;;;;;;;;;7.90;91.94;99205.70;1696864;84;20487;-85
2022/10/31 00:33:36;;;;;;;;;;;;;;;7.88;92.01;99214.50;1696756;84;20201;-85
2022/10/31 00:36:04;;;;;;;;;;;;;;;7.85;92.17;99212.84;1696830;84;20645;-85
2022/10/31 00:38:30;;;;;;;;;;;;;;;7.84;92.21;99212.88;1696709;84;22287;-85
2022/10/31 00:40:57;;;;;;;;;;;;;;;7.82;92.28;99210.30;1696578;84;20839;-84
2022/10/31 00:43:25;;;;;;;;;;;;;;;7.79;92.48;99208.61;1696648;84;20570;-84
2022/10/31 00:45:53;;;;;;;;;;;;;;;7.80;92.67;99209.03;1696870;84;20787;-82
2022/10/31 00:48:20;;;;;;;;;;;;;;;7.82;92.96;99207.69;1696648;84;20443;-85
2022/10/31 00:50:48;;;;;;;;;;;;;;;7.82;93.17;99201.14;1696657;84;21314;-82
2022/10/31 00:53:14;;;;;;;;;;;;;;;7.84;93.16;99211.11;1696764;84;20239;-84
2022/10/31 00:55:41;;;;;;;;;;;;;;;7.85;93.19;99210.66;1664813;84;20201;-83
2022/10/31 00:58:08;;;;;;;;;;;;;;;7.84;93.18;99201.09;1697018;84;20187;-85
2022/10/31 01:00:34;;;;;;;;;;;;;;;7.84;93.15;99194.55;1700779;83;20179;-83
2022/10/31 01:03:01;;;;;;;;;;;;;;;7.81;93.33;99201.56;1700792;83;21089;-79
2022/10/31 01:05:28;;;;;;;;;;;;;;;7.78;93.55;99208.23;1699982;82;20202;-82
2022/10/31 01:07:54;;;;;;;;;;;;;;;7.76;93.66;99205.23;1697108;84;20194;-80
2022/10/31 01:10:20;;;;;;;;;;;;;;;7.76;93.77;99203.45;1697057;84;20641;-82
2022/10/31 01:12:47;;;;;;;;;;;;;;;7.79;93.83;99211.23;1696922;84;20602;-82
2022/10/31 01:15:16;;;;;;;;;;;;;;;7.77;93.95;99215.66;1696897;84;21373;-85
2022/10/31 01:17:43;;;;;;;;;;;;;;;7.77;94.04;99209.11;1696560;84;20223;-86
2022/10/31 01:20:13;;;;;;;;;;;;;;;7.79;94.06;99211.23;1696623;84;20226;-84
2022/10/31 01:22:39;;;;;;;;;;;;;;;7.78;94.17;99212.16;1696557;84;20238;-81
2022/10/31 01:25:07;;;;;;;;;;;;;;;7.78;94.14;99211.28;1696657;84;20209;-85
2022/10/31 01:27:33;;;;;;;;;;;;;;;7.74;94.25;99213.12;1696684;84;22303;-84
2022/10/31 01:30:00;;;;;;;;;;;;;;;7.72;94.34;99217.55;1696522;84;20257;-83
2022/10/31 01:32:28;;;;;;;;;;;;;;;7.73;94.46;99221.02;1696706;84;20210;-83
2022/10/31 01:34:55;;;;;;;;;;;;;;;7.71;94.52;99218.45;1696600;84;20597;-84
2022/10/31 01:37:22;;;;;;;;;;;;;;;7.71;94.61;99221.06;1696661;84;20322;-84
2022/10/31 01:39:49;;;;;;;;;;;;;;;7.71;94.75;99218.45;1696832;84;21143;-85
2022/10/31 01:42:18;;;;;;;;;;;;;;;7.71;94.69;99221.06;1665419;84;20209;-86
2022/10/31 01:44:56;;;;;;;;;;;;;;;7.73;94.59;99217.98;1697022;84;20467;-86
2022/10/31 01:47:29;;;;;;;;;;;;;;;7.73;94.42;99224.52;1697030;84;20175;-85
2022/10/31 01:49:57;;;;;;;;;;;;;;;7.73;94.31;99216.66;1696928;84;20552;-84
2022/10/31 01:52:29;;;;;;;;;;;;;;;7.69;94.19;99211.09;1697085;84;21765;-84
2022/10/31 01:55:05;;;;;;;;;;;;;;;7.67;94.21;99208.97;1696659;84;20206;-84
2022/10/31 01:57:32;;;;;;;;;;;;;;;7.63;94.40;99212.12;1696768;84;20223;-82
2022/10/31 02:00:01;;;;;;;;;;;;;;;7.57;94.60;99205.73;1696930;84;20388;-86
2022/10/31 02:02:28;;;;;;;;;;;;;;;7.53;94.75;99211.97;1632959;87;20684;-84
2022/10/31 02:04:54;;;;;;;;;;;;;;;7.50;94.91;99212.05;1640469;87;21134;-86
2022/10/31 02:07:29;;;;;;;;;;;;;;;7.52;94.99;99217.25;1699371;84;20523;-85
2022/10/31 02:09:57;;;;;;;;;;;;;;;7.51;95.00;99216.83;1699403;84;20297;-85
2022/10/31 02:12:23;;;;;;;;;;;;;;;7.48;95.19;99220.83;1699329;84;20210;-84
2022/10/31 02:14:51;;;;;;;;;;;;;;;7.46;95.17;99222.64;1699395;84;20194;-85
2022/10/31 02:17:19;;;;;;;;;;;;;;;7.44;95.27;99231.84;1699423;84;21167;-85
2022/10/31 02:19:56;;;;;;;;;;;;;;;7.46;95.21;99243.58;1699438;84;20205;-83
2022/10/31 02:22:58;;;;;;;;;;;;;;;7.44;95.34;99246.23;1699360;84;20183;-85
2022/10/31 02:26:00;;;;;;;;;;;;;;;7.42;95.37;99251.51;1699723;84;20615;-86
2022/10/31 02:28:54;;;;;;;;;;;;;;;7.41;95.45;99247.19;1699502;84;20163;-86
2022/10/31 02:31:41;;;;;;;;;;;;;;;7.41;95.65;99249.80;1698838;84;21172;-85
2022/10/31 02:34:22;;;;;;;;;;;;;;;7.41;95.61;99251.12;1699622;84;20138;-84
2022/10/31 02:36:55;;;;;;;;;;;;;;;7.41;95.60;99257.66;1696341;84;20221;-84
2022/10/31 02:39:30;;;;;;;;;;;;;;;7.42;95.49;99264.59;1693636;84;20659;-82
2022/10/31 02:42:00;;;;;;;;;;;;;;;7.41;95.38;99262.89;1693916;84;20139;-81
2022/10/31 02:44:39;;;;;;;;;;;;;;;7.40;95.35;99268.16;1693647;84;23029;-84
2022/10/31 02:47:13;;;;;;;;;;;;;;;7.38;95.33;99281.72;1693677;84;20595;-85
2022/10/31 02:49:52;;;;;;;;;;;;;;;7.37;95.28;99283.48;1694062;84;20210;-85
2022/10/31 02:52:27;;;;;;;;;;;;;;;7.37;95.21;99282.17;1693725;84;20215;-84
2022/10/31 02:54:56;;;;;;;;;;;;;;;7.36;95.14;99284.41;1693620;84;20206;-83
2022/10/31 02:57:29;;;;;;;;;;;;;;;7.34;95.05;99287.48;1693690;84;21116;-84
2022/10/31 03:00:05;;;;;;;;;;;;;;;7.33;94.97;99293.63;1693619;84;20222;-86
2022/10/31 03:03:07;;;;;;;;;;;;;;;7.34;94.94;99295.34;1693770;84;20558;-85
2022/10/31 03:06:09;;;;;;;;;;;;;;;7.32;94.94;99285.36;1694078;84;20203;-82
2022/10/31 03:08:51;;;;;;;;;;;;;;;7.31;94.94;99287.55;1693805;84;20150;-83
2022/10/31 03:11:17;;;;;;;;;;;;;;;7.33;94.88;99291.02;1693622;84;21219;-83
2022/10/31 03:13:51;;;;;;;;;;;;;;;7.35;94.85;99298.38;1693652;84;20238;-85
2022/10/31 03:16:29;;;;;;;;;;;;;;;7.39;94.77;99310.94;1693976;84;20321;-83
2022/10/31 03:19:01;;;;;;;;;;;;;;;7.42;94.53;99304.31;1693760;84;20202;-83
2022/10/31 03:21:39;;;;;;;;;;;;;;;7.44;94.41;99303.82;1693737;84;20234;-86
2022/10/31 03:24:06;;;;;;;;;;;;;;;7.47;94.16;99304.20;1693848;84;20601;-81
2022/10/31 03:26:40;;;;;;;;;;;;;;;7.50;93.73;99311.53;1672164;84;20207;-84
2022/10/31 03:29:07;;;;;;;;;;;;;;;7.52;93.47;99312.80;1693701;84;20574;-84
2022/10/31 03:31:57;;;;;;;;;;;;;;;7.53;92.83;99322.36;1693722;84;20147;-84
2022/10/31 03:34:23;;;;;;;;;;;;;;;7.54;92.52;99328.02;1693641;84;20210;-86
2022/10/31 03:36:52;;;;;;;;;;;;;;;7.55;92.10;99318.81;1693840;84;21029;-86
2022/10/31 03:39:19;;;;;;;;;;;;;;;7.58;91.78;99325.72;1693672;84;20206;-86
2022/10/31 03:41:48;;;;;;;;;;;;;;;7.58;91.39;99318.74;1693703;84;20206;-85
2022/10/31 03:44:17;;;;;;;;;;;;;;;7.58;90.95;99324.41;1692904;84;20214;-86
2022/10/31 03:46:46;;;;;;;;;;;;;;;7.62;90.64;99324.76;1693696;84;20205;-86
2022/10/31 03:49:13;;;;;;;;;;;;;;;7.62;89.99;99334.77;1693576;84;21819;-84
2022/10/31 03:51:49;;;;;;;;;;;;;;;7.60;89.48;99347.51;1693636;84;20634;-85
2022/10/31 03:54:40;;;;;;;;;;;;;;;7.58;89.24;99344.05;1693729;84;20219;-83
2022/10/31 03:57:11;;;;;;;;;;;;;;;7.55;89.14;99352.00;1693628;84;20202;-84
2022/10/31 03:59:41;;;;;;;;;;;;;;;7.53;88.87;99351.16;1693479;84;20539;-85
2022/10/31 04:02:09;;;;;;;;;;;;;;;7.52;88.66;99357.31;1693556;84;21141;-80
2022/10/31 04:04:36;;;;;;;;;;;;;;;7.51;88.62;99364.28;1693719;84;20654;-86
2022/10/31 04:07:05;;;;;;;;;;;;;;;7.49;88.28;99373.09;1693675;84;20171;-82
2022/10/31 04:09:34;;;;;;;;;;;;;;;7.46;87.67;99378.39;1693710;84;20131;-85
2022/10/31 04:12:01;;;;;;;;;;;;;;;7.44;87.41;99381.89;1693723;84;20213;-86
2022/10/31 04:14:32;;;;;;;;;;;;;;;7.44;86.71;99385.82;1693201;84;21539;-86
2022/10/31 04:16:59;;;;;;;;;;;;;;;7.41;85.50;99385.92;1693811;84;20179;-85
2022/10/31 04:19:28;;;;;;;;;;;;;;;7.35;82.92;99378.20;1671577;84;20933;-86
2022/10/31 04:21:54;;;;;;;;;;;;;;;7.30;80.31;99386.61;1693674;84;20143;-86
2022/10/31 04:24:21;;;;;;;;;;;;;;;7.26;79.32;99394.11;1694101;84;20184;-83
2022/10/31 04:26:48;;;;;;;;;;;;;;;7.21;78.84;99395.97;1693807;84;21146;-82
2022/10/31 04:29:16;;;;;;;;;;;;;;;7.16;78.58;99395.21;1693526;84;20147;-83
2022/10/31 04:31:42;;;;;;;;;;;;;;;7.09;78.09;99411.95;1693742;84;20155;-84
2022/10/31 04:34:10;;;;;;;;;;;;;;;7.01;74.71;99403.83;1693629;84;20166;-84
2022/10/31 04:36:37;;;;;;;;;;;;;;;6.95;72.25;99406.58;1694809;84;20265;-86
2022/10/31 04:39:05;;;;;;;;;;;;;;;6.86;71.12;99405.48;1699031;84;20162;-81
2022/10/31 04:41:33;;;;;;;;;;;;;;;6.80;70.12;99406.91;1698012;84;20139;-82
2022/10/31 04:44:04;;;;;;;;;;;;;;;6.75;70.60;99410.06;1698325;84;20194;-86
2022/10/31 04:46:33;;;;;;;;;;;;;;;6.68;69.85;99412.80;1699088;84;20427;-85
2022/10/31 04:49:00;;;;;;;;;;;;;;;6.62;70.41;99414.25;1699140;84;20221;-85
2022/10/31 04:51:27;;;;;;;;;;;;;;;6.57;70.43;99417.37;1699198;84;21810;-86
2022/10/31 04:53:54;;;;;;;;;;;;;;;6.52;70.45;99424.44;1698968;84;20197;-85
2022/10/31 04:56:35;;;;;;;;;;;;;;;6.46;70.37;99425.89;1699149;84;20222;-86
2022/10/31 04:59:03;;;;;;;;;;;;;;;6.42;70.34;99434.23;1698673;84;20213;-86
2022/10/31 05:01:33;;;;;;;;;;;;;;;6.39;70.03;99442.55;1697582;84;20293;-83
2022/10/31 05:03:59;;;;;;;;;;;;;;;6.33;69.70;99437.01;1699126;84;21211;-85
2022/10/31 05:06:26;;;;;;;;;;;;;;;6.27;70.12;99443.22;1699009;84;20520;-85
2022/10/31 05:08:52;;;;;;;;;;;;;;;6.24;70.37;99451.56;1699003;84;20516;-85
2022/10/31 05:11:19;;;;;;;;;;;;;;;6.21;70.12;99465.98;1699104;84;20451;-84
2022/10/31 05:13:46;;;;;;;;;;;;;;;6.18;70.28;99466.88;1699211;84;20548;-86
2022/10/31 05:16:15;;;;;;;;;;;;;;;6.17;70.46;99474.32;1698955;84;21290;-85
2022/10/31 05:19:00;;;;;;;;;;;;;;;6.14;70.55;99478.28;1699353;84;20591;-87
2022/10/31 05:21:28;;;;;;;;;;;;;;;6.13;70.52;99484.39;1699019;84;20215;-84
2022/10/31 05:23:56;;;;;;;;;;;;;;;6.12;70.65;99485.30;1698813;84;20201;-86
2022/10/31 05:26:25;;;;;;;;;;;;;;;6.11;70.87;99497.92;1699151;84;20666;-86
2022/10/31 05:28:53;;;;;;;;;;;;;;;6.09;70.69;99497.09;1699331;84;22006;-86
2022/10/31 05:31:20;;;;;;;;;;;;;;;6.08;70.71;99503.20;1698970;84;20568;-86
2022/10/31 05:33:47;;;;;;;;;;;;;;;6.09;70.90;99512.77;1698939;84;20189;-86
2022/10/31 05:36:32;;;;;;;;;;;;;;;6.09;70.81;99522.77;1698818;84;20234;-84
2022/10/31 05:39:13;;;;;;;;;;;;;;;6.10;69.57;99521.00;1693375;84;20287;-79
2022/10/31 05:41:41;;;;;;;;;;;;;;;6.13;69.12;99530.10;1693453;84;21771;-85
2022/10/31 05:44:11;;;;;;;;;;;;;;;6.14;68.43;99533.14;1693214;84;20254;-85
2022/10/31 05:46:41;;;;;;;;;;;;;;;6.15;67.18;99532.23;1690306;84;20238;-86
2022/10/31 05:49:22;;;;;;;;;;;;;;;6.18;66.76;99540.03;1693481;84;20207;-86
2022/10/31 05:51:56;;;;;;;;;;;;;;;6.21;66.07;99543.91;1693719;84;20237;-87
2022/10/31 05:54:24;;;;;;;;;;;;;;;6.25;65.24;99548.63;1693386;84;21774;-86
2022/10/31 05:56:51;;;;;;;;;;;;;;;6.27;65.46;99552.96;1693539;84;20234;-86
2022/10/31 05:59:18;;;;;;;;;;;;;;;6.32;65.46;99552.44;1693503;84;20198;-85
2022/10/31 06:01:45;;;;;;;;;;;;;;;6.37;65.44;99560.63;1693584;84;20362;-87
2022/10/31 06:04:28;;;;;;;;;;;;;;;6.43;65.61;99568.38;1690553;83;20214;-85
2022/10/31 06:06:57;;;;;;;;;;;;;;;6.47;65.40;99570.04;1693670;84;21169;-83
2022/10/31 06:09:24;;;;;;;;;;;;;;;6.49;65.48;99581.36;1693515;84;20202;-85
2022/10/31 06:11:51;;;;;;;;;;;;;;;6.56;65.89;99582.11;1693623;84;20213;-84
2022/10/31 06:14:28;;;;;;;;;;;;;;;6.61;64.28;99585.05;1693700;84;20147;-81
2022/10/31 06:16:57;;;;;;;;;;;;;;;6.64;64.01;99582.81;1694156;84;20456;-85
2022/10/31 06:19:41;;;;;;;;;;;;;;;6.66;62.86;99594.98;1693649;84;21206;-86
2022/10/31 06:22:11;;;;;;;;;;;;;;;6.70;61.75;99596.64;1694926;84;20170;-85
2022/10/31 06:24:38;;;;;;;;;;;;;;;6.75;61.49;99601.80;1696801;84;20179;-84
2022/10/31 06:27:06;;;;;;;;;;;;;;;6.78;59.63;99607.44;1695327;81;20236;-81
2022/10/31 06:29:33;;;;;;;;;;;;;;;6.79;60.28;99609.14;1695603;84;20201;-85
2022/10/31 06:32:04;;;;;;;;;;;;;;;6.84;60.94;99616.46;1692669;84;21073;-85
2022/10/31 06:34:32;;;;;;;;;;;;;;;6.89;60.28;99617.23;1693973;84;20207;-83
2022/10/31 06:36:58;;;;;;;;;;;;;;;6.91;59.97;99619.41;1694182;84;20147;-81
2022/10/31 06:39:26;;;;;;;;;;;;;;;6.90;60.95;99618.13;1698815;84;20139;-85
2022/10/31 06:41:52;;;;;;;;;;;;;;;6.93;61.85;99621.55;1699096;84;20519;-85
2022/10/31 06:44:20;;;;;;;;;;;;;;;7.01;61.93;99631.84;1699396;84;22532;-86
2022/10/31 06:46:57;;;;;;;;;;;;;;;7.06;62.10;99630.89;1699220;84;20222;-84
2022/10/31 06:49:38;;;;;;;;;;;;;;;7.14;62.24;99637.73;1697033;84;20238;-85
2022/10/31 06:52:07;;;;;;;;;;;;;;;7.18;61.78;99639.42;1698705;84;20436;-86
2022/10/31 06:54:35;;;;;;;;;;;;;;;7.21;61.30;99647.18;1699160;84;20353;-86
2022/10/31 06:57:02;;;;;;;;;;;;;;;7.22;60.79;99646.30;1699225;84;21555;-87
2022/10/31 06:59:30;;;;;;;;;;;;;;;7.24;61.08;99649.29;1699005;84;20260;-86
2022/10/31 07:02:10;;;;;;;;;;;;;;;7.27;59.81;99647.08;1699018;84;20209;-85
2022/10/31 07:04:37;;;;;;;;;;;;;;;7.27;59.67;99656.69;1699163;84;20683;-86
2022/10/31 07:07:04;;;;;;;;;;;;;;;7.25;60.57;99655.41;1699104;84;20213;-84
2022/10/31 07:09:30;;;;;;;;;;;;;;;7.32;61.56;99653.08;1699155;84;21123;-86
2022/10/31 07:11:58;;;;;;;;;;;;;;;7.44;61.22;99651.53;1699094;84;20143;-82
2022/10/31 07:14:26;;;;;;;;;;;;;;;7.51;59.81;99652.73;1699143;84;20218;-86
2022/10/31 07:16:52;;;;;;;;;;;;;;;7.53;58.86;99655.75;1699157;84;20230;-86
2022/10/31 07:19:20;;;;;;;;;;;;;;;7.54;57.33;99656.59;1698330;84;20151;-82
2022/10/31 07:21:48;;;;;;;;;;;;;;;7.53;56.78;99656.17;1699185;84;21026;-82
2022/10/31 07:24:14;;;;;;;;;;;;;;;7.56;56.40;99660.89;1699155;84;20139;-83
2022/10/31 07:26:47;;;;;;;;;;;;;;;7.59;56.78;99648.20;1699187;84;20214;-83
2022/10/31 07:29:14;;;;;;;;;;;;;;;7.69;56.54;99657.59;1699375;84;20136;-82
2022/10/31 07:31:40;;;;;;;;;;;;;;;7.75;54.39;99658.78;1699058;84;20162;-83
2022/10/31 07:34:12;;;;;;;;;;;;;;;7.76;52.85;99667.03;1698634;84;21122;-86
2022/10/31 07:36:56;;;;;;;;;;;;;;;7.77;52.32;99658.30;1699178;84;20568;-85
2022/10/31 07:39:24;;;;;;;;;;;;;;;7.80;53.26;99663.48;1699118;84;20212;-84
2022/10/31 07:41:51;;;;;;;;;;;;;;;7.85;53.08;99659.88;1699445;84;20730;-85
2022/10/31 07:44:18;;;;;;;;;;;;;;;7.84;52.82;99665.58;1699311;84;20224;-84
2022/10/31 07:47:03;;;;;;;;;;;;;;;7.85;52.36;99659.88;1699208;84;21285;-84
2022/10/31 07:49:48;;;;;;;;;;;;;;;7.86;52.77;99666.86;1699104;84;20218;-82
2022/10/31 07:52:33;;;;;;;;;;;;;;;7.97;52.51;99677.98;1635709;87;20405;-82
2022/10/31 07:55:17;;;;;;;;;;;;;;;8.04;51.10;99671.70;1686360;84;20621;-85
2022/10/31 07:57:46;;;;;;;;;;;;;;;8.10;50.67;99668.97;1698907;84;20139;-85
2022/10/31 08:00:12;;;;;;;;;;;;;;;8.09;50.22;99671.16;1699081;84;21568;-83
2022/10/31 08:02:42;;;;;;;;;;;;;;;8.04;49.94;99676.95;1698939;84;20206;-85
2022/10/31 08:05:26;;;;;;;;;;;;;;;8.04;51.16;99674.33;1642782;87;20626;-85
2022/10/31 08:08:01;;;;;;;;;;;;;;;8.10;51.20;99674.20;1675886;84;20440;-85
2022/10/31 08:10:30;;;;;;;;;;;;;;;8.23;51.39;99684.41;1669467;84;20206;-81
2022/10/31 08:13:03;;;;;;;;;;;;;;;8.32;51.65;99683.75;1699037;84;21569;-84
2022/10/31 08:15:30;;;;;;;;;;;;;;;8.41;50.83;99687.07;1698796;84;20226;-85
2022/10/31 08:17:57;;;;;;;;;;;;;;;8.44;50.79;99687.89;1699012;84;20225;-86
2022/10/31 08:20:23;;;;;;;;;;;;;;;8.55;48.78;99684.55;1698944;84;20440;-84
2022/10/31 08:22:55;;;;;;;;;;;;;;;8.58;47.75;99681.46;1699304;84;20139;-84
2022/10/31 08:25:22;;;;;;;;;;;;;;;8.57;46.96;99687.13;1698563;84;21170;-83
2022/10/31 08:27:50;;;;;;;;;;;;;;;8.60;46.47;99689.69;1698861;84;20225;-85
2022/10/31 08:30:40;;;;;;;;;;;;;;;8.62;46.67;99690.97;1699008;84;20967;-85
2022/10/31 08:33:16;;;;;;;;;;;;;;;8.67;46.88;99691.26;1658643;84;20643;-82
2022/10/31 08:36:01;;;;;;;;;;;;;;;8.78;46.41;99684.45;1699033;84;20476;-83
2022/10/31 08:38:42;;;;;;;;;;;;;;;8.92;46.16;99696.77;1674723;84;21238;-86
2022/10/31 08:41:09;;;;;;;;;;;;;;;8.98;45.02;99685.70;1699047;84;20205;-88
2022/10/31 08:43:35;;;;;;;;;;;;;;;8.95;45.51;99689.74;1698902;84;20213;-86
2022/10/31 08:46:02;;;;;;;;;;;;;;;8.91;45.18;99681.09;1698929;84;20417;-87
2022/10/31 08:48:29;;;;;;;;;;;;;;;8.93;45.71;99689.32;1699110;84;20396;-87
2022/10/31 08:50:58;;;;;;;;;;;;;;;9.02;45.84;99689.98;1698828;84;21156;-87
2022/10/31 08:53:25;;;;;;;;;;;;;;;9.14;44.82;99680.48;1699000;84;20221;-86
2022/10/31 08:55:55;;;;;;;;;;;;;;;9.18;44.03;99681.25;1698099;84;20199;-85
2022/10/31 08:58:23;;;;;;;;;;;;;;;9.15;44.53;99680.91;1698890;84;20206;-86
2022/10/31 09:00:52;;;;;;;;;;;;;;;9.18;44.93;99679.52;1699490;84;20225;-85
2022/10/31 09:03:23;;;;;;;;;;;;;;;9.25;44.18;99682.84;1699072;84;21153;-86
2022/10/31 09:05:51;;;;;;;;;;;;;;;9.29;42.97;99673.97;1699089;84;20195;-84
2022/10/31 09:08:18;;;;;;;;;;;;;;;9.28;43.48;99677.52;1698950;84;20185;-85
2022/10/31 09:10:46;;;;;;;;;;;;;;;9.32;43.45;99679.59;1699042;84;20197;-83
2022/10/31 09:13:17;;;;;;;;;;;;;;;9.34;42.27;99685.20;1699349;84;20269;-85
2022/10/31 09:16:02;;;;;;;;;;;;;;;9.36;41.99;99684.70;1698975;84;21216;-88
2022/10/31 09:18:31;;;;;;;;;;;;;;;9.37;42.34;99679.88;1699249;84;20163;-87
2022/10/31 09:20:59;;;;;;;;;;;;;;;9.44;43.32;99680.57;1699276;84;20245;-87
2022/10/31 09:23:26;;;;;;;;;;;;;;;9.58;41.46;99685.00;1699478;84;20202;-87
2022/10/31 09:25:55;;;;;;;;;;;;;;;9.63;40.66;99671.28;1699123;84;20242;-87
2022/10/31 09:28:32;;;;;;;;;;;;;;;9.65;41.07;99679.13;1699525;84;21126;-87
2022/10/31 09:31:00;;;;;;;;;;;;;;;9.63;39.52;99676.54;1698842;84;20270;-87
2022/10/31 09:33:28;;;;;;;;;;;;;;;9.61;41.07;99684.89;1693395;84;20252;-85
2022/10/31 09:35:58;;;;;;;;;;;;;;;9.67;40.48;99683.88;1695638;84;20519;-83
2022/10/31 09:38:25;;;;;;;;;;;;;;;9.66;40.35;99677.74;1699521;84;20154;-88
2022/10/31 09:40:57;;;;;;;;;;;;;;;9.67;40.65;99690.45;1699402;84;21132;-86
2022/10/31 09:43:37;;;;;;;;;;;;;;;9.69;40.96;99690.41;1698767;84;20175;-87
2022/10/31 09:46:28;;;;;;;;;;;;;;;9.77;40.90;99680.08;1669644;84;20205;-88
2022/10/31 09:49:25;;;;;;;;;;;;;;;9.91;40.62;99682.30;1699682;84;20621;-87
2022/10/31 09:52:02;;;;;;;;;;;;;;;10.02;38.83;99682.86;1699476;84;20201;-88
2022/10/31 09:54:34;;;;;;;;;;;;;;;10.00;39.16;99686.42;1698420;84;22309;-87
2022/10/31 09:57:00;;;;;;;;;;;;;;;9.95;38.97;99689.64;1699565;84;20222;-86
2022/10/31 09:59:34;;;;;;;;;;;;;;;9.93;39.74;99687.05;1699431;84;20210;-79
2022/10/31 10:02:23;;;;;;;;;;;;;;;9.97;38.47;99679.50;1699245;84;20535;-85
2022/10/31 10:05:10;;;;;;;;;;;;;;;10.00;38.52;99685.11;1699451;84;20230;-85
2022/10/31 10:07:46;;;;;;;;;;;;;;;10.09;39.59;99671.70;1669788;84;20333;-88
2022/10/31 10:10:35;;;;;;;;;;;;;;;10.18;37.27;99679.77;1699197;84;20172;-86
2022/10/31 10:13:48;;;;;;;;;;;;;;;10.16;37.72;99686.38;1699467;84;20195;-84
2022/10/31 10:16:32;;;;;;;;;;;;;;;10.11;36.65;99676.45;1699710;84;21150;-87
2022/10/31 10:19:17;;;;;;;;;;;;;;;10.10;37.10;99692.27;1698852;84;20523;-86
2022/10/31 10:21:48;;;;;;;;;;;;;;;10.07;36.23;99706.81;1698866;84;21079;-83
2022/10/31 10:24:49;;;;;;;;;;;;;;;9.99;36.32;99691.29;1699415;84;20175;-84
2022/10/31 10:27:35;;;;;;;;;;;;;;;10.00;37.13;99695.19;1699704;84;20194;-87
2022/10/31 10:30:04;;;;;;;;;;;;;;;10.08;37.15;99682.27;1699413;84;20989;-86
2022/10/31 10:32:33;;;;;;;;;;;;;;;10.13;36.68;99681.67;1699780;84;20583;-84
2022/10/31 10:35:06;;;;;;;;;;;;;;;10.19;36.87;99685.44;1699494;84;21119;-87
2022/10/31 10:37:36;;;;;;;;;;;;;;;10.28;36.95;99681.66;1695286;84;20152;-84
2022/10/31 10:40:09;;;;;;;;;;;;;;;10.41;35.85;99693.56;1694810;84;20520;-86
2022/10/31 10:48:14;;;;;;;;;;;;;;;10.37;35.25;99679.65;1694109;84;21129;-82
2022/10/31 10:50:44;;;;;;;;;;;;;;;10.38;34.79;99691.88;1693639;84;20213;-84
2022/10/31 10:53:48;;;;;;;;;;;;;;;10.38;36.35;99683.98;1694090;84;20175;-84
2022/10/31 10:56:20;;;;;;;;;;;;;;;10.49;35.13;99680.15;1577391;91;20150;-82
2022/10/31 10:58:47;;;;;;;;;;;;;;;10.52;35.20;99678.31;1653550;86;20382;-82
2022/10/31 11:01:13;;;;;;;;;;;;;;;10.50;36.13;99685.36;1667585;86;21132;-86
2022/10/31 11:03:40;;;;;;;;;;;;;;;10.53;35.36;99685.73;1667572;86;20243;-86
2022/10/31 11:06:21;;;;;;;;;;;;;;;10.62;35.96;99692.00;1657826;86;20260;-87
2022/10/31 11:08:48;;;;;;;;;;;;;;;10.72;35.54;99689.48;1630582;88;20536;-86
2022/10/31 11:11:26;;;;;;;;;;;;;;;10.87;35.05;99686.80;1630538;88;20211;-85
2022/10/31 11:13:56;;;;;;;;;;;;;;;10.96;34.49;99689.14;1630702;86;21135;-84
2022/10/31 11:16:34;;;;;;;;;;;;;;;10.99;34.33;99688.17;1666066;86;20420;-85
2022/10/31 11:19:09;;;;;;;;;;;;;;;11.01;33.82;99686.37;1666866;85;20201;-84
2022/10/31 11:21:35;;;;;;;;;;;;;;;11.01;33.76;99680.22;1666197;86;20212;-87
2022/10/31 11:24:14;;;;;;;;;;;;;;;11.04;33.41;99680.97;1666775;86;20347;-86
2022/10/31 11:26:42;;;;;;;;;;;;;;;11.11;33.39;99685.14;1666818;85;21129;-83
2022/10/31 11:29:18;;;;;;;;;;;;;;;11.23;32.52;99693.08;1666749;85;20212;-82
2022/10/31 11:31:45;;;;;;;;;;;;;;;11.28;32.00;99700.36;1666655;86;20212;-87
2022/10/31 11:34:17;;;;;;;;;;;;;;;11.31;32.64;99684.89;1667068;86;20198;-86
2022/10/31 11:36:44;;;;;;;;;;;;;;;11.45;32.48;99691.02;1666790;86;20217;-85
2022/10/31 11:39:17;;;;;;;;;;;;;;;11.73;32.64;99690.86;1665808;85;21142;-86
2022/10/31 11:41:43;;;;;;;;;;;;;;;12.07;31.43;99689.66;1661288;86;20201;-83
2022/10/31 11:44:16;;;;;;;;;;;;;;;12.40;31.49;99689.25;1660930;86;20193;-81
2022/10/31 11:46:50;;;;;;;;;;;;;;;12.82;30.73;99678.73;1658634;86;20811;-84
2022/10/31 11:49:20;;;;;;;;;;;;;;;13.26;30.56;99691.47;1657966;86;20170;-85
2022/10/31 11:51:52;;;;;;;;;;;;;;;13.86;29.96;99691.52;1657652;86;21073;-85
2022/10/31 11:54:27;;;;;;;;;;;;;;;14.71;28.70;99684.47;1657743;86;20217;-87
2022/10/31 11:56:54;;;;;;;;;;;;;;;15.54;27.75;99682.91;1657622;86;20846;-85
2022/10/31 11:59:28;;;;;;;;;;;;;;;16.38;25.85;99681.11;1657893;86;20205;-85
2022/10/31 12:01:56;;;;;;;;;;;;;;;16.98;26.05;99685.22;1657634;86;20231;-87
2022/10/31 12:04:26;;;;;;;;;;;;;;;17.60;24.71;99679.75;1657796;86;22055;-87
2022/10/31 12:06:54;;;;;;;;;;;;;;;17.91;24.27;99681.86;1657747;86;20277;-85
2022/10/31 12:09:24;;;;;;;;;;;;;;;17.97;23.15;99672.63;1657531;86;20391;-84
2022/10/31 12:11:54;;;;;;;;;;;;;;;18.07;22.98;99681.78;1657178;86;20174;-83
2022/10/31 12:14:38;;;;;;;;;;;;;;;18.04;22.87;99675.77;1657511;86;20209;-84
2022/10/31 12:17:22;;;;;;;;;;;;;;;17.99;22.82;99684.06;1657868;86;21137;-86
2022/10/31 12:20:14;;;;;;;;;;;;;;;18.24;22.97;99679.83;1657460;86;20189;-81
2022/10/31 12:23:09;;;;;;;;;;;;;;;18.68;22.73;99684.95;1657526;86;20452;-86
2022/10/31 12:25:52;;;;;;;;;;;;;;;18.99;22.03;99691.44;1657575;86;20171;-83
2022/10/31 12:28:43;;;;;;;;;;;;;;;19.19;21.74;99684.27;1656989;86;20527;-85
2022/10/31 12:31:46;;;;;;;;;;;;;;;19.65;22.11;99691.80;1657362;86;21207;-86
2022/10/31 12:34:33;;;;;;;;;;;;;;;20.28;21.02;99691.85;1657775;86;20159;-86
2022/10/31 12:37:29;;;;;;;;;;;;;;;20.71;20.09;99683.41;1657562;86;20189;-85
2022/10/31 12:40:00;;;;;;;;;;;;;;;20.77;19.66;99690.11;1659200;86;20170;-85
2022/10/31 12:42:50;;;;;;;;;;;;;;;20.68;20.09;99692.11;1661149;86;20194;-86
2022/10/31 12:45:30;;;;;;;;;;;;;;;20.67;19.69;99695.28;1661232;86;21239;-87
2022/10/31 12:48:21;;;;;;;;;;;;;;;20.66;20.33;99698.94;1641877;86;20726;-87
2022/10/31 12:51:03;;;;;;;;;;;;;;;20.68;19.15;99705.02;1661109;86;20453;-87
2022/10/31 12:53:51;;;;;;;;;;;;;;;20.38;19.50;99698.73;1661123;86;20487;-84
2022/10/31 12:56:29;;;;;;;;;;;;;;;19.97;19.52;99703.41;1661073;86;20340;-86
2022/10/31 12:58:59;;;;;;;;;;;;;;;20.06;19.93;99695.70;1661045;86;21360;-85
2022/10/31 13:01:50;;;;;;;;;;;;;;;20.02;19.62;99699.05;1660839;86;20994;-88
2022/10/31 13:04:20;;;;;;;;;;;;;;;19.92;19.56;99697.53;1660756;86;20219;-86
2022/10/31 13:06:51;;;;;;;;;;;;;;;20.01;19.71;99700.88;1635080;86;20204;-84
2022/10/31 13:09:21;;;;;;;;;;;;;;;20.19;19.58;99705.86;1661384;86;20242;-88
2022/10/31 13:11:51;;;;;;;;;;;;;;;20.07;19.27;99706.25;1660991;86;21238;-84
2022/10/31 13:14:42;;;;;;;;;;;;;;;20.12;19.58;99707.27;1661429;86;20195;-86
2022/10/31 13:17:15;;;;;;;;;;;;;;;20.15;19.01;99704.38;1659910;86;20221;-86
2022/10/31 13:19:43;;;;;;;;;;;;;;;19.79;19.73;99714.05;1661135;86;20205;-87
2022/10/31 13:22:16;;;;;;;;;;;;;;;19.91;20.39;99709.17;1661374;86;20185;-86
2022/10/31 13:25:21;;;;;;;;;;;;;;;20.33;20.49;99720.42;1661422;86;21292;-85
2022/10/31 13:27:53;;;;;;;;;;;;;;;20.97;19.77;99716.70;1661046;86;20834;-88
2022/10/31 13:30:20;;;;;;;;;;;;;;;21.31;18.91;99727.53;1661390;86;20535;-86